SILO ALERT LOG
| Silo ID | Alert Type | Alert Message | Silo Type | Points | Depth (mm) | Strength | Temperature (°C) | Humidity (%) | Height (mm) | Volume (㎥) | Weight (t) | Flag | Time |
|---|---|---|---|---|---|---|---|---|---|---|---|---|---|
| WJWJR05 | Humidity | 습도센서 측정값이 80% 초과 | 평 | 100 | -2050 | 4000 | 80 | 100 | -100 | -500 | -400 | 15 | 2026-07-24 11:46:58.000 |
| WJWJR01 | Humidity | 습도센서 측정값이 80% 초과 | 평 | 100 | -2050 | 4000 | 80 | 100 | -100 | -500 | -400 | 15 | 2026-07-24 11:46:57.000 |
| WJWJR01 | Humidity | 습도센서 측정값이 80% 초과 | 평 | 100 | -2050 | 4000 | 80 | 100 | -100 | -500 | -400 | 15 | 2026-07-24 11:45:13.000 |
| WJWJR05 | Humidity | 습도센서 측정값이 80% 초과 | 평 | 100 | -2050 | 4000 | 80 | 100 | -100 | -500 | -400 | 15 | 2026-07-24 11:45:13.000 |
| WJWJR05 | Humidity | 습도센서 측정값이 80% 초과 | 평 | 100 | -2050 | 4000 | 80 | 100 | -100 | -500 | -400 | 15 | 2026-07-24 11:43:02.000 |
| WJWJR01 | Humidity | 습도센서 측정값이 80% 초과 | 평 | 100 | -2050 | 4000 | 80 | 100 | -100 | -500 | -400 | 15 | 2026-07-24 11:43:01.000 |
| WJWJR01 | Humidity | 습도센서 측정값이 80% 초과 | 평 | 77 | 7680 | 1068 | 26.4 | 95.5 | -40 | -4.524 | 0 | 0 | 2026-07-24 09:26:05.000 |
| WJWJR05 | Humidity | 습도센서 측정값이 80% 초과 | 평 | 62 | 7650 | 2561 | 27 | 82.6 | 69 | 7.917 | 5.005 | 0 | 2026-07-24 09:25:45.000 |
| WJWJR05 | Humidity | 습도센서 측정값이 80% 초과 | 평 | 61 | 7660 | 2601 | 26.3 | 82.8 | 59 | 6.786 | 4.29 | 0 | 2026-07-24 08:25:46.000 |
| WJWJR05 | Humidity | 습도센서 측정값이 80% 초과 | 평 | 56 | 7660 | 2612 | 26.2 | 83.3 | 59 | 6.786 | 4.29 | 0 | 2026-07-24 07:25:44.000 |
| WJWJR05 | Humidity | 습도센서 측정값이 80% 초과 | 평 | 62 | 7660 | 2619 | 26.3 | 83.2 | 59 | 6.786 | 4.29 | 0 | 2026-07-24 06:25:46.000 |
| WJWJR01 | Humidity | 습도센서 측정값이 80% 초과 | 평 | 76 | 7690 | 1068 | 24.8 | 95.1 | -50 | -5.655 | 0 | 0 | 2026-07-24 05:26:04.000 |
| WJWJR05 | Humidity | 습도센서 측정값이 80% 초과 | 평 | 58 | 7670 | 2589 | 26.5 | 83.1 | 49 | 5.655 | 3.575 | 0 | 2026-07-24 05:25:45.000 |
| WJWJR05 | Humidity | 습도센서 측정값이 80% 초과 | 평 | 61 | 7660 | 2610 | 26.6 | 83 | 59 | 6.786 | 4.29 | 0 | 2026-07-24 04:25:45.000 |
| WJWJR05 | Humidity | 습도센서 측정값이 80% 초과 | 평 | 62 | 7670 | 2628 | 26.7 | 83.1 | 49 | 5.655 | 3.575 | 0 | 2026-07-24 03:25:47.000 |
| WJWJR05 | Humidity | 습도센서 측정값이 80% 초과 | 평 | 61 | 7360 | 2638 | 26.9 | 83 | 359 | 40.715 | 25.74 | 0 | 2026-07-24 02:25:50.000 |
| WJWJR01 | Humidity | 습도센서 측정값이 80% 초과 | 평 | 76 | 7640 | 1038 | 25.7 | 93.3 | 0 | 0 | 0 | 0 | 2026-07-24 01:25:58.000 |
| WJWJR05 | Humidity | 습도센서 측정값이 80% 초과 | 평 | 58 | 7690 | 2623 | 27.1 | 82.8 | 29 | 3.393 | 2.145 | 0 | 2026-07-24 01:25:47.000 |
| WJWJR05 | Humidity | 습도센서 측정값이 80% 초과 | 평 | 57 | 7680 | 2642 | 27.3 | 82.7 | 40 | 4.524 | 2.86 | 0 | 2026-07-24 00:25:46.000 |
| WJWJR05 | Humidity | 습도센서 측정값이 80% 초과 | 평 | 58 | 7690 | 2614 | 27.6 | 82.4 | 29 | 3.393 | 2.145 | 0 | 2026-07-23 23:25:46.000 |
[첫 페이지] [18] [19] [20] [21] 22 [23] [24] [25] [26] [마지막 페이지]